Bradley Pink Classic

October 13, 2017
|
Newman Golf Course Peoria, IL 61614
HOST: Bradley University   DIRECTOR: Craig Dahlquist   TIMING: ShaZam Racing   REFEREE: Steve Gonwa   STARTER: Jamero Rainey  

Women's White Race Team Results (4.97 Mile)
Top↑

PL Team Total Time Avg. Time Score 1 2 3 4 5 6 7
1 Monmouth (Ill.) 2:02:43 24:32 45 1 3 10 14 17 25 33
2 Greenville 2:04:26 24:53 59 4 7 12 15 21 29 31
3 Harper College 2:05:37 25:07 72 2 5 18 20 27 28 49
4 St. Mary-of-the-Woods 2:08:52 25:46 96 6 8 9 36 37 38 46
5 Upper Iowa 2:15:42 27:08 140 13 19 26 30 52    
6 Coe 2:14:21 26:52 147 16 23 34 35 39 40 41
7 Knox 2:24:47 28:57 186 11 22 44 53 56 58  
8 Lincoln College 2:28:58 29:47 218 24 42 47 50 55 57 59
9 Illinois State University Club 2:28:02 29:36 219 32 43 45 48 51 54  

PL Team Total Time Avg. Time Score 1 2 3 4 5 6 7
1 Windsor 1:59:51 23:58 15 1 2 3 4 5 6 7

Women's White Race Individual Results (4.97 Mile)
Top↑
START TIME: 1:44 PM

PL NAME YEAR TEAM Avg. Mile TIME SCORE
1 Caitlyn Allen JR-3 Monmouth (Ill.) 07:40.4 23:42.1 1
1 Sydney Hawkins Junior Windsor 07:35.0 23:25.5 1
2 Misbah Baig Freshman Harper College 07:45.2 23:56.9 2
2 Rachel Crawley Sophomore Windsor 07:42.4 23:48.1 2
3 Alison Robinson Junior Windsor 07:48.2 24:06.2 3
3 Joanna Podosek SR-4 Monmouth (Ill.) 07:46.0 23:59.4 3
4 Lia Kruse SR-4 Greenville 07:49.9 24:11.4 4
4 Fiona Rocheleau Sophomore Windsor 07:51.4 24:16.1 4
5 Mya Vialva   Windsor 07:51.4 24:16.1 5
5 Bree Bogucki Sophomore Harper College 07:51.5 24:16.4 5
6 Vanessa Cotter Freshman Windsor 07:57.1 24:33.6 6
6 Kendyll Schulz Freshman St. Mary-of-the-Woods 07:51.8 24:17.2 6
7 Chelsea Viselli Sophomore Windsor 08:02.9 24:51.6 7
7 Shirley Estes JR-3 Greenville 07:53.0 24:20.9 7
8 Cheyenne Wright Senior St. Mary-of-the-Woods 07:53.9 24:23.8 8
8 Papac Daniela   Windsor 08:05.0 24:58.1
9 Breanna Barger Freshman St. Mary-of-the-Woods 07:55.6 24:29.0 9
10 Stephanie Saey SR-4 Monmouth (Ill.) 07:57.6 24:35.1 10
11 Rebecca Katz SR-4 Knox 08:01.9 24:48.4 11
12 Cassandra Fitzgibbons SO-2 Illinois Central College 08:04.3 24:55.7
13 Jordie File JR-3 Greenville 08:06.5 25:02.8 12
14 Christonna Shafranski FR-1 Upper Iowa 08:08.2 25:08.0 13
15 Kate Saulcy JR-3 Monmouth (Ill.) 08:08.4 25:08.5 14
16 Brooke Goodyear SR-4 Greenville 08:09.4 25:11.6 15
17 Mareena Franke JR-3 Coe 08:09.6 25:12.3 16
18 Kelci Foss SR-4 Monmouth (Ill.) 08:11.6 25:18.3 17
19 Melissa Rodriguez Freshman Harper College 08:15.2 25:29.5 18
20 Alyssa Weber JR-3 Upper Iowa 08:18.4 25:39.5 19
21 Rachael Temple Freshman Harper College 08:18.6 25:39.9 20
22 Megan McKee SR-4 Greenville 08:18.7 25:40.3 21
23 Alyssa Klunk SO-2 Illinois Central College 08:19.0 25:41.3
24 Frances Larsen SR-4 Knox 08:22.8 25:53.1 22
25 Katalina Stai SO-2 Coe 08:23.2 25:54.3 23
26 Erin Layne FR-1 Lincoln College 08:26.4 26:04.0 24
27 Teagan McKenna FR-1 Monmouth (Ill.) 08:27.4 26:07.3 25
28 Madison Brownrigg FR-1 Upper Iowa 08:28.2 26:09.5 26
29 Taylor Kreiss Freshman Harper College 08:29.9 26:14.8 27
30 Natalie Cook Sophomore Harper College 08:31.5 26:19.7 28
31 Ashleigh Brubaker FR-1 Greenville 08:34.1 26:28.0 29
32 Lucy Syverson FR-1 Upper Iowa 08:37.1 26:37.2 30
33 Taylor Prusa JR-3 Greenville 08:38.1 26:40.1 31
34 Haley Prokaski Senior Illinois State University Club 08:40.0 26:46.1 32
35 Kylar Craig FR-1 Greenville 08:40.5 26:47.7
36 Kirsten Menke FR-1 Monmouth (Ill.) 08:41.7 26:51.2 33
37 Holly Wisnousky SR-4 Coe 08:42.5 26:53.9 34
38 Amy Wollenburg SR-4 Monmouth (Ill.) 08:47.4 27:08.9
39 Meghan Brune FR-1 Coe 08:54.8 27:31.7 35
40 Corrissa Proctor Sophomore St. Mary-of-the-Woods 08:57.6 27:40.3 36
41 Saige Woodford Freshman St. Mary-of-the-Woods 09:04.6 28:02.0 37
42 Jessica Salinas JR-3 Monmouth (Ill.) 09:06.8 28:08.9
43 Kori Nesbit SO-2 Greenville 09:06.9 28:09.2
44 Teresa Dudley Junior St. Mary-of-the-Woods 09:09.4 28:17.0 38
45 Alyssa Knudson JR-3 Coe 09:20.0 28:49.6 39
46 Shay Goble SO-2 Danville Area CC 09:23.0 28:58.8
47 Kelsie Coates SO-2 Coe 09:24.1 29:02.2 40
48 Jean Springsteen JR-3 Coe 09:24.4 29:03.3 41
49 Ella Gibbons JR-3 Coe 09:24.8 29:04.6
50 Payton Marr FR-1 Lincoln College 09:25.3 29:06.0 42
51 Jackie Epperson Freshman Illinois State University Club 09:29.0 29:17.5 43
52 Danica Dosmann FR-1 Knox 09:32.0 29:26.6 44
53 Diamond Holmes FR-1 Danville Area CC 09:38.1 29:45.5
54 Lita Davis Freshman Illinois State University Club 09:39.2 29:49.0 45
55 Celine Hornick Freshman St. Mary-of-the-Woods 09:39.5 29:49.9 46
56 Aurora Board FR-1 Lincoln College 09:44.1 30:04.2 47
57 Anna Kastalic Senior Illinois State University Club 09:46.5 30:11.4 48
58 Shaina Andrews SO-2 Danville Area CC 09:59.5 30:51.7
59 Jazmine Carrasco Freshman Harper College 10:03.1 31:02.9 49
60 Markayla Rogers SO-2 Lincoln College 10:09.3 31:22.0 50
61 Mackenzie Bratland Freshman Illinois State University Club 10:21.2 31:58.8 51
62 Breyanna Hill SO-2 Upper Iowa 10:24.2 32:08.0 52
63 Hanna Camden Freshman St. Mary-of-the-Woods 10:25.5 32:12.1
64 McKenzie Meadows FR-1 Knox 10:26.0 32:13.5 53
65 Maddie Kennedy   Illinois State University Club 10:27.3 32:17.6 54
66 Tia Wilson FR-1 Lincoln College 10:29.1 32:23.0 55
67 Mariel Guzman SR-4 Knox 10:30.2 32:26.6 56
68 Apeasha Ashby SO-2 Lincoln College 10:46.0 33:15.4 57
69 Carli Miller SR-4 Knox 11:25.9 35:18.7 58
70 Kaylynn Prater FR-1 Lincoln College 12:44.1 39:20.0 59

Men's White Race Team Results (4.97 Mile)
Top↑

PL Team Total Time Avg. Time Score 1 2 3 4 5 6 7
1 Greenville 2:15:29 27:05 32 1 4 5 10 12 24 26
2 Harper College 2:19:24 27:52 70 7 9 14 18 22 27 30
3 Monmouth (Ill.) 2:21:26 28:17 105 2 3 23 37 40 43 45
4 St. Mary-of-the-Woods 2:23:29 28:41 122 11 16 21 32 42 52 54
5 Danville Area CC 2:25:12 29:02 145 6 28 29 35 47 67 68
6 Knox 2:25:52 29:10 154 15 25 34 39 41 44 46
7 Coe 2:26:55 29:23 155 8 20 36 38 53 57 65
8 Lincoln College 2:28:22 29:40 164 17 19 31 48 49 60 61
9 Illinois State University Club 2:34:26 30:53 219 13 33 56 58 59 63 64
10 Joliet Junior College 2:42:43 32:32 284 50 51 55 62 66    

Men's White Race Individual Results (4.97 Mile)
Top↑
START TIME: 12:59 PM

PL NAME YEAR TEAM Avg. Mile TIME SCORE
1 Andrew Sharp JR-3 Greenville 08:29.5 26:13.8 1
2 Cooper Pauley SR-4 Monmouth (Ill.) 08:33.9 26:27.3 2
3 Tate Heiple JR-3 Monmouth (Ill.) 08:42.8 26:54.6 3
4 John Mangold JR-3 Greenville 08:43.5 26:56.8 4
5 Nathan Potts SR-4 Greenville 08:45.8 27:04.0 5
6 Brennan Guido SO-2 Danville Area CC 08:48.8 27:13.2 6
7 Sean Sanaghan Freshman Harper College 08:53.2 27:26.7 7
8 Nathan Haerr SR-4 Coe 08:53.2 27:26.8 8
9 Tony Espinoza Freshman Harper College 08:53.4 27:27.5 9
10 Jaylen Shelton SR-4 Greenville 08:56.0 27:35.6 10
11 Brady Page Freshman St. Mary-of-the-Woods 08:56.4 27:36.9 11
12 Dylan Goodyear SO-2 Greenville 08:57.3 27:39.5 12
13 Nick Murphy Sophomore Illinois State University Club 09:01.1 27:51.2 13
14 Micheal Sisko Freshman Harper College 09:02.5 27:55.6 14
15 Samuel Hernandez SO-2 Knox 09:03.4 27:58.4 15
16 John Crotteau SO-2 Illinois Central College 09:03.6 27:58.9
17 Parker Nuest Freshman St. Mary-of-the-Woods 09:05.7 28:05.5 16
18 Terrell Robinson FR-1 Lincoln College 09:06.9 28:09.3 17
19 Ryan Ziolkowski Sophomore Harper College 09:07.0 28:09.4 18
20 Brian Gichuru FR-1 Lincoln College 09:08.9 28:15.5 19
21 McCoy Meshach SO-2 Coe 09:09.4 28:17.0 20
22 Jordan Love Junior St. Mary-of-the-Woods 09:10.7 28:20.9 21
23 Jeff Glatz Freshman Harper College 09:12.3 28:26.0 22
24 Griffin Morrill FR-1 Monmouth (Ill.) 09:13.2 28:28.6 23
25 Noah Dir SO-2 Greenville 09:13.3 28:29.0 24
26 Arthur Santoro FR-1 Knox 09:16.9 28:40.0 25
27 Jonah Cecil FR-1 Illinois Central College 09:18.2 28:44.0
28 Dylon Niswonger SO-2 Greenville 09:18.3 28:44.4 26
29 Johnathon Goodenow JR-3 Greenville 09:18.4 28:44.9
30 Shujaan Sultan Freshman Harper College 09:18.8 28:46.0 27
31 Trent Ponder FR-1 Danville Area CC 09:20.6 28:51.6 28
32 Emmons King SO-2 Danville Area CC 09:23.1 28:59.3 29
33 Glen Garino Freshman Harper College 09:26.5 29:09.9 30
34 Elijah Grewal FR-1 Lincoln College 09:27.8 29:13.7 31
35 Ethan Collins Freshman St. Mary-of-the-Woods 09:28.9 29:17.3 32
36 Mark Charnogorsky Senior Illinois State University Club 09:29.1 29:17.7 33
37 Isaac Hughes FR-1 Knox 09:33.2 29:30.5 34
38 Ian Powell FR-1 Danville Area CC 09:34.1 29:33.1 35
39 Caleb Blevins FR-1 Coe 09:34.7 29:35.0 36
40 Jay Gray JR-3 Monmouth (Ill.) 09:36.2 29:39.7 37
41 Scott Williams Sophomore Harper College 09:36.2 29:39.8
42 Ben Nelson SR-4 Coe 09:37.9 29:45.1 38
43 Taisei Nishiki FR-1 Knox 09:38.1 29:45.7 39
44 Mike Bersell SO-2 Monmouth (Ill.) 09:41.6 29:56.4 40
45 Collin Kessinger FR-1 Greenville 09:42.2 29:58.3
46 Jonathan Rico SO-2 Knox 09:42.3 29:58.5 41
47 Jacob Turner Freshman St. Mary-of-the-Woods 09:45.6 30:08.7 42
48 Tyler Bland JR-3 Monmouth (Ill.) 09:46.5 30:11.4 43
49 Ben Hosto SR-4 Knox 09:48.0 30:16.0 44
50 Tanner Heiple SO-2 Monmouth (Ill.) 09:50.5 30:23.8 45
51 Zachary Barnes JR-3 Knox 09:53.3 30:32.5 46
52 Logan McBee SO-2 Danville Area CC 09:54.1 30:35.1 47
53 Brandon Allsop JR-3 Monmouth (Ill.) 09:56.8 30:43.3
54 Zachery Podunajec SO-2 Lincoln College 10:08.3 31:18.8 48
55 Blake Quandt FR-1 Lincoln College 10:10.4 31:25.4 49
56 Jaime Quintero Freshman Joliet Junior College 10:10.4 31:25.4 50
57 Jesus Tenorio Freshman Joliet Junior College 10:11.7 31:29.2 51
58 Parker Herz SO-2 Illinois Central College 10:12.8 31:32.9
59 Levi Elrod Junior St. Mary-of-the-Woods 10:13.0 31:33.2 52
60 Jared Wells JR-3 Coe 10:19.0 31:52.0 53
61 Thomas Shaw Junior St. Mary-of-the-Woods 10:21.0 31:58.0 54
62 Nicholas Razo Sophomore Joliet Junior College 10:22.4 32:02.4 55
63 Justin Caton Sophomore Illinois State University Club 10:24.2 32:08.0 56
64 Orie Brown JR-3 Coe 10:27.9 32:19.3 57
65 Keegan Sutherland Senior Illinois State University Club 10:31.8 32:31.5 58
66 Scott Zajac Freshman Illinois State University Club 10:33.9 32:37.8 59
67 Eduardo Lopez SO-2 Lincoln College 10:37.7 32:49.7 60
68 Christian Raymond SO-2 Lincoln College 10:40.9 32:59.5 61
69 Peter Klepec Freshman Joliet Junior College 10:43.2 33:06.8 62
70 Alexander Baker FR-1 Knox 10:47.5 33:19.8
71 Jose Sanchez FR-1 Lincoln College 10:51.5 33:32.4
72 Dillion Butler FR-1 Lincoln College 10:53.0 33:36.9
73 Brandan McGrath Freshman Illinois State University Club 10:54.1 33:40.2 63
74 Richard Rainville Junior Illinois State University Club 10:58.0 33:52.3 64
75 Teddy Turner SO-2 Knox 11:03.4 34:08.9
76 Jacob Feldman SO-2 Coe 11:03.9 34:10.5 65
77 Dray Schreiber JR-3 Coe 11:06.7 34:19.3
78 Derek McCoy FR-1 Illinois Central College 11:11.1 34:32.7
79 Michael Stoll Freshman Illinois State University Club 11:12.4 34:36.7
80 Dominick Creed Freshman Joliet Junior College 11:13.4 34:39.9 66
81 Hunter Todd SO-2 Monmouth (Ill.) 11:17.0 34:51.2
82 Ryley McMahen FR-1 Coe 11:34.7 35:45.9
83 Nate Moreman FR-1 Danville Area CC 11:43.7 36:13.5 67
84 Caleb Pierce FR-1 Danville Area CC 12:39.3 39:05.2 68

Open Race Team Results (4.97 Mile)
Top↑

PL Team Total Time Avg. Time Score 1 2 3 4 5 6 7
2 Marquette 2:02:17 24:27 83 2 5 6 6 8 11 9
3 Bradley 2:00:47 24:09 62 4 8 9 19   22 25
4 Northern Iowa 1:56:00 23:12 41 1 3 10 12 15 16 18
5 Loyola (Ill.) 2:13:53 26:46 82 14 15 16   18 19  
6 Missouri 2:02:36 24:31 116 7   21 23 27   38
7 Wis.-Milwaukee 2:09:38 25:55 156   26 29   32 34 35
8 Bradley Running Braves Club 2:35:29 31:05 123 21 22   23 28 29 31
9 Harper College 2:34:59 30:59 134   20 24 26 30 34  
10 South Dakota 2:04:39 24:55 144 20   24 31 33 36 37
11 Illinois State University Club 3:01:21 36:16 155 25 27 32 35 36 37  
12 Missouri State 2:09:41 25:56 207 30 40 44 46 47 48  

PL Team Total Time Avg. Time Score 1 2 3 4 5 6 7
1 Windsor 2:09:14 25:50 15 1   2 3 4 5 6

Open Race Individual Results (4.97 Mile)
Top↑
START TIME: 2:29 PM

PL NAME YEAR TEAM Avg. Mile TIME SCORE
1 Gabby Champion FR-1 Northern Iowa 07:20.1 22:39.5 1
1 Michael Ward Junior Unattached-Bradley 08:01.7 24:47.8 1
1 Josh Zilles Freshman Windsor 08:40.8 26:48.5 1
1 Stef Smith   Windsor 06:46.1 20:54.2
2 Hannah Gorin JR-3 Marquette 07:21.9 22:44.7 2
2 Haran Dunderdale Junior Unattached-Bradley 08:05.3 24:59.0 2
2 Brendan Heikkinen   Windsor 08:42.5 26:53.9 2
3 Alyssa Williams SO-2 Northern Iowa 07:22.2 22:45.9 3
3 Brixton Rill Junior UIC-Unattached 08:07.9 25:07.0
3 Alex Rocheleau   Windsor 08:48.0 27:10.9 3
4 Morgan Lain JR-3 Bradley 07:25.5 22:56.1 4
4 Will Anderson   Unattached-Bradley 08:20.5 25:46.0 3
4 Mitch Heyink Freshman Windsor 08:53.3 27:27.2 4
5 Alison Parker SR-4 Marquette 07:26.3 22:58.6 5
5 Matt Aho   Unattached-Bradley 08:22.5 25:51.9 4
5 Cole Hannam   Windsor 09:06.8 28:08.8 5
6 Linda Varela FR-1 Marquette 07:28.1 23:03.9 6
6 Alex Bashqawi Junior UIC-Unattached 08:27.2 26:06.4
6 Brendan Simone   Windsor 09:11.8 28:24.2 6
7 Jack Franklin Senior Unattached-Bradley 08:27.3 26:06.8 5
7 Nathan Outridge   Windsor 09:26.6 29:10.1 7
7 Jane Onders SO-2 Xavier (Ohio) 07:28.9 23:06.4
8 Nicole Colonna JR-3 Nebraska 07:30.8 23:12.5
8 Dray Carson JR-3 Wichita State 08:34.3 26:28.4
9 Michael Westphal SO-2 Iowa 08:35.4 26:31.9
9 Karina Liz SO-2 Missouri 07:30.8 23:12.5 7
10 Jennifer Luksan SR-4 Bradley 07:30.9 23:12.7 8
10 Ethan Kirk SO-2 Illinois State 08:36.1 26:34.1
11 Arsinoe Del Real FR-1 Bradley 07:32.7 23:18.1 9
11 Paolo Tiongson FR-1 Marquette 08:38.8 26:42.5 6
12 Kendall Cast SR-4 Nebraska 07:33.6 23:20.9
12 Steffan Uhrich   Unattached-Bradley 08:39.9 26:45.6 7
13 Danny Peterson FR-1 Marquette 08:40.5 26:47.7 8
13 Alayna Kollasch FR-1 Northern Iowa 07:35.5 23:26.8 10
14 Emily Foley FR-1 Marquette 07:35.6 23:27.2 11
14 Tannock Blair JR-3 Saint Louis 08:41.0 26:49.3
15 Wes Ward SR-4 Illinois State 08:41.3 26:50.1
15 Paige Boatright FR-1 IUPUI 07:36.5 23:29.9
16 Lucas Rhed FR-1 IUPUI 08:42.1 26:52.6
16 Brynn Bartlett FR-1 Northern Illinois 07:36.7 23:30.7
17 Matthew Cavanaugh SO-2 Marquette 08:42.4 26:53.7 9
17 Sarah Clark SR-4 Xavier (Ohio) 07:37.3 23:32.6
18 Raul Rosendo FR-1 Eastern Illinois 08:42.7 26:54.6
18 Maddie Reynolds SR-4 Northern Iowa 07:37.6 23:33.4 12
19 Maeve McDonald SR-4 Marquette 07:37.7 23:33.5 13
19 Brian Leonard Senior Unattached-Bradley 08:43.7 26:57.7 10
20 Cain Winebrenner SR-4 Missouri 08:44.3 26:59.4
20 Jane Boessen FR-1 SE Missouri 07:37.9 23:34.4
21 Emma Moravec FR-1 Marquette 07:38.2 23:35.3 14
21 Mitchell Kwapick SR-4 Marquette 08:44.4 26:59.8 11
22 Noah Healy FR-1 Iowa 08:44.7 27:00.6
22 Tess Roorda FR-1 Northern Iowa 07:38.3 23:35.4 15
23 Mary Arch FR-1 Iowa 07:38.4 23:35.7
23 Josh Urban FR-1 Marquette 08:45.3 27:02.6 12
24 Ryan Dvornik SO-2 Marquette 08:47.1 27:08.0 13
24 Josie Kriener FR-1 Northern Iowa 07:38.6 23:36.5 16
25 Abigail Busse SR-4 Marquette 07:39.6 23:39.5 17
25 Connor Stine SO-2 Wichita State 08:47.7 27:10.0
26 Demetri Panici SO-2 Loyola (Ill.) 08:49.1 27:14.3 14
26 Lucy Conroy JR-3 Northern Iowa 07:40.6 23:42.6 18
27 Wes Heal SO-2 Loyola (Ill.) 08:49.2 27:14.5 15
27 Sophie Bolich FR-1 Marquette 07:40.7 23:43.1
28 Miles Kanipe FR-1 Loyola (Ill.) 08:49.9 27:16.8 16
28 Bernadette Prichard SO-2 Xavier (Ohio) 07:41.0 23:44.0
29 Alondra Agurrie Sophomore Harper College 07:41.5 23:45.5
29 Colton Bell FR-1 Illinois State 08:50.7 27:19.0
30 Erin Laird SO-2 Loyola (Ill.) 07:42.4 23:48.2
30 Ben Wagonor   Unattached-Bradley 08:50.9 27:19.8
31 Michaela Heit JR-3 Northern Illinois 07:42.9 23:49.7
31 Kallin Khan Junior University of Iowa T&F Club 08:51.5 27:21.7
32 Ally Lampert FR-1 Bradley 07:43.0 23:50.2 19
32 Noah Kramer FR-1 IUPUI 08:53.1 27:26.6
33 Sydney Vandersteeg FR-1 IUPUI 07:45.1 23:56.6
33 Alex Moen FR-1 Wichita State 08:53.4 27:27.6
34 Takoda Potts FR-1 IUPUI 08:53.7 27:28.4
34 Morgan Lawler FR-1 South Dakota 07:46.5 24:00.9 20
35 Derek Gross SO-2 Marquette 08:54.2 27:29.9 17
35 Emily Hahn JR-3 Missouri 07:46.8 24:01.8 21
36 Nick Porter SO-2 Bradley 08:54.5 27:30.9
36 Rosie Gensichen JR-3 Nebraska-Omaha 07:46.9 24:02.1
37 Casey Kramer SR-4 Bradley 07:46.9 24:02.1 22
37 Kallo Arno FR-1 South Dakota 08:55.7 27:34.5
38 Max Barbour FR-1 Marquette 08:57.9 27:41.3
38 Vivien Jepkemoi FR-1 Missouri 07:47.1 24:02.8 23
39 Kyle Thompson FR-1 Marquette 08:58.1 27:42.2
39 Haley Fritza SO-2 South Dakota 07:47.8 24:04.8 24
40 Kaitlynn Johnson FR-1 Nebraska 07:47.8 24:04.9
40 Connor Meehan FR-1 Xavier (Ohio) 09:00.4 27:49.2
41 Elizabeth Niedert JR-3 Iowa 07:49.4 24:09.9
41 Brady Traeder SO-2 Wis.-Milwaukee 09:01.3 27:51.8
42 Savana Peterson SO-2 Bradley 07:50.2 24:12.2 25
42 Austin Earp SO-2 Eastern Illinois 09:02.0 27:53.9
43 Daniel Toomey FR-1 DePaul 09:04.1 28:00.5
43 Macie Weber SO-2 Iowa 07:50.5 24:13.2
44 Michael Hahndorf FR-1 Bradley 09:07.5 28:11.1
44 Nora Finegan FR-1 Northern Illinois 07:50.9 24:14.4
45 Jake Gillum FR-1 Illinois State 09:07.6 28:11.5
45 Meagan Biddle FR-1 Illinois State 07:50.9 24:14.5
46 Adrienne Brauer FR-1 SE Missouri 07:51.2 24:15.4
46 Trevor Falco FR-1 SE Missouri 09:08.0 28:12.6
47 Kyle Whitney SR-4 Loyola (Ill.) 09:10.4 28:20.1 18
47 Brynn LiaBraaten FR-1 Marquette 07:51.3 24:15.6
48 Scott Seymour SO-2 Bradley 09:10.5 28:20.2
48 Becky Van Thiel JR-3 Wis.-Milwaukee 07:51.5 24:16.4 26
49 David Thompson FR-1 Eastern Illinois 09:13.3 28:29.0
49 Elena Coleman FR-1 Saint Louis 07:52.4 24:19.0
50 Patrick Bruch FR-1 Marquette 09:14.0 28:31.2
50 Faramola Shonekan SO-2 Missouri 07:52.6 24:19.8 27
51 Rachel Iacofano SO-2 Bradley 07:53.0 24:21.0 28
51 Nicholas Prajka SR-4 Loyola (Ill.) 09:14.6 28:32.9 19
52 Travis Hodge   Kansas State 09:14.9 28:33.8
52 Taylor Douglas SO-2 Wis.-Milwaukee 07:53.2 24:21.7 29
53 Lindsey Biesemeyer FR-1 Missouri State 07:53.4 24:22.3 30
53 Spencer Atkinson FR-1 Xavier (Ohio) 09:15.0 28:34.1
54 Rachael Zeiger SR-4 South Dakota 07:53.8 24:23.5 31
54 Alex Sayles SR-4 Wis.-Milwaukee 09:15.6 28:36.0
55 Isabel Lopez JR-3 Marquette 07:54.3 24:25.1
55 Charlie Samarzich FR-1 SE Missouri 09:15.9 28:36.9
56 Emma Makowski SO-2 Bradley 07:54.9 24:26.8
56 Colin Weber Senior University of New Haven Track 09:15.9 28:36.9
57 Sarah Voss JR-3 Illinois State 07:55.8 24:29.6
57 Grant Baker FR-1 Xavier (Ohio) 09:16.1 28:37.7
58 James Suchy FR-1 Greenville 09:17.4 28:41.7
58 Aleena Villani JR-3 Wis.-Milwaukee 07:57.0 24:33.2 32
59 Jacob McCullough FR-1 IUPUI 09:20.0 28:49.6
59 Anna Buckstaff FR-1 Marquette 07:57.5 24:34.7
60 Austin Rockstroh SO-2 IPFW 09:23.2 28:59.5
60 Emma Welch FR-1 South Dakota 07:57.7 24:35.6 33
61 Nick Dolan JR-3 Saint Louis 09:24.9 29:04.9
61 Emily Royston FR-1 Wis.-Milwaukee 07:58.5 24:37.9 34
62 Jack Casey Freshman Harper College 09:27.1 29:11.7 20
62 Kylie Jansky SO-2 Wis.-Milwaukee 07:59.9 24:42.2 35
63 Aaron Harris SR-4 DePaul 09:33.8 29:32.3
63 Malerie Harmon FR-1 Marquette 08:00.2 24:43.0
64 Mitchael Deamantopulos SO-2 Illinois-Chicago 09:39.1 29:48.6
64 Katie Hiskes SR-4 Xavier (Ohio) 08:00.7 24:44.7
65 Tyler Keen SR-4 Eastern Illinois 09:42.0 29:57.7
65 Kelsi Kearney FR-1 South Dakota 08:02.0 24:48.6 36
66 Taylor Stephen JR-3 Missouri 09:44.9 30:06.4
66 Ellie Coyle SO-2 South Dakota 08:05.1 24:58.3 37
67 Emma Bresser FR-1 Nebraska 08:06.5 25:02.5
67 Andrew Whitener JR-3 SE Missouri 09:52.5 30:29.9
68 Megan Ng FR-1 Saint Louis 08:07.6 25:05.9
68 Aaron Miller JR-3 Wichita State 09:52.6 30:30.3
69 Joe Smaga   Bradley Running Braves Club 10:03.9 31:05.4 21
69 Emily Karl JR-3 Loyola (Ill.) 08:08.4 25:08.6
70 Sergio Llanes JR-3 DePaul 10:08.7 31:20.1
70 Pilar Glaser SO-2 Loyola (Ill.) 08:09.8 25:12.7
71 Johnathan Teoli FR-1 Greenville 10:11.0 31:27.3
71 Phoebe Clowser SO-2 Illinois State 08:09.9 25:13.1
72 Henry Wen Senior Bradley Running Braves Club 10:14.3 31:37.4 22
72 Erika Wrightout   Missouri 08:10.8 25:16.0 38
73 Chris McGee SO-2 Greenville 10:20.2 31:55.7
73 Elly Deturris JR-3 Missouri 08:11.2 25:17.2 39
74 Jena Brooks Freshman Bradley Running Braves Club 08:12.3 25:20.4
74 Colin Alger Senior Bradley Running Braves Club 10:31.4 32:30.3 23
75 Caleb Inorio Freshman Harper College 10:39.2 32:54.4 24
75 Kayla Fallis JR-3 Missouri State 08:14.3 25:26.9 40
76 Talia Saleh FR-1 Bradley 08:14.8 25:28.2
76 Matt Lundine Senior Illinois State University Club 10:42.4 33:04.3 25
77 Pedro Godinez Freshman Harper College 10:58.4 33:53.6 26
77 Taylor Brown SO-2 South Dakota 08:15.0 25:29.0 41
78 Caleb Grunau FR-1 Greenville 11:01.5 34:03.2
78 Alexis Willems JR-3 Wis.-Milwaukee 08:17.4 25:36.2 42
79 Nic Wright Junior Illinois State University Club 11:10.9 34:32.2 27
79 Daylee Olson JR-3 Nebraska-Omaha 08:18.1 25:38.3
80 George Walls   Bradley Running Braves Club 11:18.7 34:56.4 28
80 Colleen Martinez FR-1 Loyola (Ill.) 08:18.4 25:39.4
81 Jack Simzyk   Bradley Running Braves Club 11:19.0 34:57.1 29
81 Anna Langevin SO-2 Saint Louis 08:18.9 25:41.0
82 Marcus Maschietto Freshman Harper College 11:24.5 35:14.2 30
82 Brenda Hernandez JR-3 Wis.-Milwaukee 08:20.6 25:46.3 43
83 Ian Fournie   Bradley Running Braves Club 11:33.1 35:40.8 31
83 Caroline Duboeuf FR-1 Missouri State 08:22.1 25:50.9 44
84 Aaron Meneses Freshman Illinois State University Club 11:54.1 36:45.7 32
84 Alexis Allgood JR-3 Nebraska-Omaha 08:22.5 25:52.0
85 Bradley Bach   Bradley Running Braves Club 11:55.4 36:49.8 33
85 Wren Renquist FR-1 Iowa 08:23.3 25:54.4
86 Noah Silber   Bradley Running Braves Club 12:13.6 37:45.9
86 Bella Bowers SO-2 SE Missouri 08:27.6 26:07.8
87 Kyle Sieb Sophomore Harper College 12:14.3 37:47.9 34
87 Richelle Bain FR-1 Missouri 08:29.9 26:14.9 45
88 Logan Thompson Sophomore Illinois State University Club 12:27.2 38:27.9 35
88 Marta Pescador Freshman Unattached- Bradley 08:30.5 26:16.6
89 Luis Macias Freshman Illinois State University Club 12:28.4 38:31.7 36
89 Amber Ellison FR-1 South Dakota 08:31.3 26:19.1
90 Emily Hasselbusch SO-2 Greenville 08:36.5 26:35.4
90 Mahmood Ali - Khan JR-3 Knox 14:54.2 46:02.0
91 Andres Sanchez Senior Illinois State University Club 15:11.8 46:56.4 37
91 Ashlynn Atwood FR-1 South Dakota 08:37.5 26:38.3
92 Kimberley Klein SO-2 South Dakota 08:37.5 26:38.3
93 Amber Obermaier JR-3 Missouri State 08:38.1 26:40.1 46
94 Emily Furtek Freshman Bradley Running Braves Club 08:38.5 26:41.4
95 Alyx Flippin SO-2 Nebraska-Omaha 08:43.8 26:57.9
96 Claire Schwarz JR-3 Missouri State 08:51.5 27:21.5 47
97 Alyssa Goesch FR-1 Wis.-Milwaukee 09:11.5 28:23.5
98 Brianna Anello SO-2 Greenville 09:14.2 28:31.6
99 Emily Graham FR-1 Missouri State 09:18.5 28:45.1 48
100 Carmelita Shouldis JR-3 South Dakota 09:27.4 29:12.6
101 Rachel Stutzman SO-2 Greenville 09:37.2 29:42.7
102 Isabella Borzecki Freshman Illinois State University Club 09:54.2 30:35.3
103 Taylor Bunch Senior St. Mary-of-the-Woods 09:59.1 30:50.4
104 Allison Howard SO-2 South Dakota 10:24.3 32:08.3
105 Elizabeth Trausch Sophomore St. Mary-of-the-Woods 10:32.5 32:33.5
106 Hana Lee JR-3 Knox 10:34.0 32:38.4
107 Sarah Frolik   Bradley Running Braves Club 11:19.5 34:58.7
108 Harper Colclasure SO-2 Knox 12:01.9 37:09.9
109 Jessica Hickey SO-2 Knox 12:22.0 38:12.0

Men's Red Race Team Results (4.97 Mile)
Top↑

PL Team Total Time Avg. Time Score 1 2 3 4 5 6 7
1 Iowa 2:05:15 25:03 78 1 11 15 24 27 53 55
2 Bradley 2:05:29 25:05 91 2 3 22 31 33 56 109
3 Nebraska 2:06:04 25:12 122 4 6 30 38 44 49 52
4 Marquette 2:06:28 25:17 129 7 17 25 32 48 51 69
5 Kansas State 2:06:51 25:22 143 10 13 37 41 42 78 124
6 Oakland 2:07:12 25:26 164 8 12 20 39 85 138 139
7 Drake 2:08:56 25:47 252 26 28 58 64 76 152 163
8 Wichita State 2:08:48 25:45 254 16 18 70 73 77 94 102
9 Loyola (Ill.) 2:08:55 25:47 270 5 23 66 80 96 118 131
10 South Dakota 2:09:00 25:48 276 9 43 46 71 107 123 157
11 Eastern Illinois 2:09:34 25:54 295 19 21 57 95 103 143 159
12 Illinois State 2:09:44 25:56 308 14 47 61 89 97 98 105
13 IUPUI 2:10:10 26:02 320 35 40 63 81 101 114 115
14 Illinois-Chicago 2:10:41 26:08 356 29 65 72 82 108 116 164
15 DePaul 2:11:52 26:22 434 50 67 87 110 120 125 155
16 Wis.-Milwaukee 2:11:59 26:23 444 59 75 91 106 113 137 154
17 Missouri 2:12:31 26:30 464 54 62 86 126 136 160  
18 Toledo 2:12:33 26:30 467 45 83 100 111 128 140 149
19 SIU Edwardsville 2:13:42 26:44 523 74 79 90 135 145    
20 Northern Iowa 2:15:02 27:00 559 60 88 99 146 166    
21 IPFW 2:14:28 26:53 575 92 93 127 130 133 153 161
22 Xavier (Ohio) 2:15:13 27:02 609 84 104 129 142 150 156 158
23 Valparaiso 2:15:44 27:08 648 112 117 134 141 144 170 171
24 SE Missouri 2:17:01 27:24 662 68 119 148 162 165 167 172
25 Chicago State 2:24:45 28:57 678 34 122 169 173 180 181  
26 Wis.-Green Bay 2:23:30 28:42 684 36 121 174 176 177 178  
27 Western Illinois 2:20:43 28:08 773 132 147 151 168 175 179  

PL Team Total Time Avg. Time Score 1 2 3 4 5 6 7
1 Windsor 2:07:05 25:25 15 1 2 3 4 5 6 7

Men's Red Race Individual Results (4.97 Mile)
Top↑
START TIME: 3:14 PM

PL NAME YEAR TEAM Avg. Mile TIME SCORE
1 Nathan Mylenek SO-2 Iowa 07:54.8 24:26.3 1
1 Andrew Nebel Junior Windsor 08:04.8 24:57.2 1
2 Taylor FloydMews SR-4 Bradley 07:57.3 24:34.1 2
2 Shawn Master Senior Windsor 08:12.0 25:19.5 2
3 Joe Kagumba   Windsor 08:13.4 25:23.9 3
3 Jake Hoffert SO-2 Bradley 07:57.3 24:34.2 3
4 Wyatt McGuire JR-3 Nebraska 07:58.0 24:36.3 4
4 Michael Pesce   Windsor 08:18.4 25:39.5 4
5 Mitch Cauchi   Windsor 08:20.5 25:45.9 5
5 Alex Baker SR-4 Loyola (Ill.) 08:00.6 24:44.4 5
6 Jacob Rothera Sophomore Windsor 08:21.1 25:47.8 6
6 Austin Post SR-4 Nebraska 08:00.8 24:45.2 6
7 Nick D'Alessandro Freshman Windsor 08:25.9 26:02.5 7
7 Alec Miller SR-4 Marquette 08:00.9 24:45.4 7
8 Joshua Martin Freshman Windsor 08:36.0 26:33.8
8 Bryce Stroede SR-4 Oakland 08:02.9 24:51.5 8
9 Eldon Warner JR-3 South Dakota 08:03.2 24:52.3 9
10 Colton Donahue SR-4 Kansas State 08:05.3 24:58.8 10
11 Daniel Soto JR-3 Iowa 08:05.5 24:59.7 11
12 Jacob Bowman SR-4 Oakland 08:06.1 25:01.5 12
13 Lukas Koch SR-4 Kansas State 08:06.4 25:02.3 13
14 Kyle Mattes JR-3 Illinois State 08:07.3 25:05.1 14
15 Bailey Hesse-Withbroe JR-3 Iowa 08:07.4 25:05.5 15
16 Zack Penrod SO-2 Wichita State 08:08.2 25:07.7 16
17 Jon Klaiber JR-3 Marquette 08:08.5 25:08.7 17
18 Nathan Wickoren SR-4 Wichita State 08:09.5 25:12.0 18
19 Dustin Hatfield FR-1 Eastern Illinois 08:10.8 25:16.0 19
20 Andrew Bowman SR-4 Oakland 08:11.1 25:16.8 20
21 Christopher Orlow SR-4 Eastern Illinois 08:11.3 25:17.4 21
22 Nikolas Hess JR-3 Bradley 08:11.6 25:18.5 22
23 Peter Schaible SR-4 Loyola (Ill.) 08:11.9 25:19.2 23
24 Brandon Cooley SO-2 Iowa 08:11.9 25:19.4 24
25 Aric Miller JR-3 Marquette 08:12.1 25:19.9 25
26 Maximilian Fridrich FR-1 Drake 08:13.2 25:23.3 26
27 Luke Sampson SO-2 Iowa 08:13.7 25:24.9 27
28 Joshua Yeager JR-3 Drake 08:14.2 25:26.5 28
29 Walmer Saavedra SO-2 Illinois-Chicago 08:14.4 25:27.1 29
30 Peter Spinks SR-4 Nebraska 08:14.8 25:28.2 30
31 Alec Danner FR-1 Bradley 08:15.3 25:29.9 31
32 Daniel Pederson SO-2 Marquette 08:16.0 25:31.8 32
33 Nyle Clinton SR-4 Bradley 08:16.2 25:32.7 33
34 DiJon Smith SR-4 Chicago State 08:16.5 25:33.4 34
35 Jeremy Breedlove JR-3 IUPUI 08:16.5 25:33.5 35
36 Mitchell Bilitz SR-4 Wis.-Green Bay 08:16.7 25:34.0 36
37 Brett Bachman SR-4 Kansas State 08:17.2 25:35.6 37
38 Alec Sery SR-4 Nebraska 08:17.4 25:36.3 38
39 Brad Mallory JR-3 Oakland 08:17.5 25:36.6 39
40 Ben Savage FR-1 IUPUI 08:17.6 25:37.0 40
41 Bryan Zack SR-4 Kansas State 08:17.7 25:37.1 41
42 Jeffrey Bachman SR-4 Kansas State 08:17.9 25:37.9 42
43 Luke Bailey FR-1 South Dakota 08:18.0 25:38.3 43
44 Eric Karl II JR-3 Nebraska 08:18.2 25:38.7 44
45 Titus Koech JR-3 Toledo 08:18.7 25:40.4 45
46 Brice Cowman SR-4 South Dakota 08:19.0 25:41.3 46
47 Skyler Arthur JR-3 Illinois State 08:19.5 25:42.7 47
48 Brad Eagan JR-3 Marquette 08:19.5 25:42.8 48
49 Jordan De Spong SO-2 Nebraska 08:19.7 25:43.4 49
50 Chris Korabik SR-4 DePaul 08:19.7 25:43.4 50
51 Ryan Burd SO-2 Marquette 08:19.9 25:43.9 51
52 Karson LeComte SO-2 Nebraska 08:20.0 25:44.2 52
53 Karson Sommer SO-2 Iowa 08:20.3 25:45.3 53
54 Sheldon Keence SR-4 Missouri 08:20.5 25:45.8 54
55 Daniel Murphy JR-3 Iowa 08:20.6 25:46.2 55
56 Jon May FR-1 Bradley 08:20.7 25:46.3 56
57 Bailey Timmons FR-1 Nebraska 08:21.7 25:49.6
58 Marcus Skinner SO-2 Eastern Illinois 08:21.9 25:50.1 57
59 Kyle Cass SO-2 Drake 08:22.4 25:51.7 58
60 Terry McMillan JR-3 Wis.-Milwaukee 08:22.5 25:52.0 59
61 Luke Johnston SR-4 Northern Iowa 08:22.9 25:53.4 60
62 Cody Baele JR-3 Illinois State 08:23.6 25:55.6 61
63 Stephen Mugeche SO-2 Missouri 08:24.0 25:56.8 62
64 Roman Jennings FR-1 IUPUI 08:25.1 26:00.0 63
65 Matt Cozine SO-2 Drake 08:25.3 26:00.8 64
66 Nathan Mroz JR-3 Illinois-Chicago 08:25.4 26:01.1 65
67 Kevin White JR-3 Loyola (Ill.) 08:25.8 26:02.2 66
68 Jake Pecorin SR-4 DePaul 08:25.9 26:02.5 67
69 Curtis Reed SO-2 SE Missouri 08:26.0 26:02.8 68
70 Henry Mierzwa JR-3 Marquette 08:26.5 26:04.3 69
71 Reno Law JR-3 Wichita State 08:26.7 26:05.0 70
72 Nathan Wendt JR-3 South Dakota 08:27.0 26:05.9 71
73 Zach Szczesniak JR-3 Illinois-Chicago 08:27.5 26:07.5 72
74 Ethan Kossover FR-1 Wichita State 08:27.9 26:08.8 73
75 Kevin Ryan SR-4 Marquette 08:27.9 26:08.9
76 Ian Eklin JR-3 Iowa 08:28.0 26:08.9
77 Landon Skelly SO-2 SIU Edwardsville 08:28.1 26:09.5 74
78 Alex Cotter FR-1 Wis.-Milwaukee 08:28.2 26:09.6 75
79 Kyle Brandt SO-2 Drake 08:29.7 26:14.4 76
80 Ben Flowers FR-1 Wichita State 08:30.0 26:15.1 77
81 Joe Gorthy JR-3 Kansas State 08:30.2 26:15.9 78
82 Tyler Owens SR-4 SIU Edwardsville 08:30.6 26:17.1 79
83 Maximilian O'Meara SO-2 Loyola (Ill.) 08:30.8 26:17.5 80
84 Jacob Stamm SO-2 IUPUI 08:32.0 26:21.4 81
85 Tom Brennan SO-2 Illinois-Chicago 08:32.5 26:23.1 82
86 Daniel Kemboi FR-1 Toledo 08:32.7 26:23.5 83
87 Garrett Knapik SR-4 Xavier (Ohio) 08:33.2 26:25.0 84
88 Keenan Jones SO-2 Oakland 08:33.5 26:26.0 85
89 Ben Goodman SR-4 Missouri 08:33.6 26:26.4 86
90 James Ryan SR-4 DePaul 08:33.7 26:26.6 87
91 Alex Gill FR-1 Marquette 08:33.9 26:27.4
92 Mitchell Pritts SR-4 Northern Iowa 08:34.1 26:27.9 88
93 Scott Anderson FR-1 Illinois State 08:34.2 26:28.2 89
94 Austin Woodard SO-2 SIU Edwardsville 08:34.5 26:29.0 90
95 Nick Michalowski JR-3 Wis.-Milwaukee 08:34.6 26:29.6 91
96 Logan Kitchen JR-3 IPFW 08:34.7 26:29.7 92
97 Alex Barton SO-2 IPFW 08:34.7 26:29.9 93
98 Austin Sturdy SR-4 Wichita State 08:35.4 26:31.8 94
99 Michael Mest SR-4 Eastern Illinois 08:35.6 26:32.5 95
100 Kenny Wallace FR-1 Loyola (Ill.) 08:35.7 26:32.7 96
101 Thomas Thornton SO-2 Illinois State 08:35.8 26:33.2 97
102 Alex Tollinger FR-1 Nebraska 08:36.1 26:34.1
103 Kimathi Johnson SO-2 Illinois State 08:36.3 26:34.8 98
104 Alex Jackson JR-3 Northern Iowa 08:36.7 26:36.1 99
105 Josh Oeters JR-3 Toledo 08:37.2 26:37.4 100
106 Joel Thompson SR-4 IUPUI 08:37.5 26:38.5 101
107 Stan Skwarlo SR-4 Wichita State 08:37.6 26:38.7 102
108 Tyler Lay FR-1 Eastern Illinois 08:37.7 26:38.9 103
109 Jack Hautz SO-2 Xavier (Ohio) 08:37.9 26:39.6 104
110 J.D. Lafayette JR-3 Illinois State 08:38.1 26:40.3 105
111 Matt Brooks JR-3 Wis.-Milwaukee 08:38.5 26:41.5 106
112 Isaac Benz FR-1 South Dakota 08:39.0 26:42.9 107
113 Carlos Cabrera FR-1 Illinois-Chicago 08:39.1 26:43.4 108
114 David Rodriguez SO-2 Bradley 08:39.3 26:43.9 109
115 Charlie MacIntyre FR-1 DePaul 08:39.8 26:45.4 110
116 Brian Stubelt JR-3 Toledo 08:40.0 26:46.0 111
117 Victor Fortin SO-2 Valparaiso 08:40.2 26:46.8 112
118 Corey Thornton FR-1 Wis.-Milwaukee 08:40.4 26:47.5 113
119 Jarit Perkins FR-1 IUPUI 08:40.6 26:47.8 114
120 Alec Hartman FR-1 Bradley 08:40.8 26:48.5
121 Abiel Mogos SR-4 IUPUI 08:41.0 26:49.1 115
122 Martin Skucas FR-1 Illinois-Chicago 08:41.0 26:49.3 116
123 Sidney Noble SR-4 Valparaiso 08:42.1 26:52.6 117
124 Riley DeMeulenaere SO-2 Loyola (Ill.) 08:42.1 26:52.6 118
125 Griffin Bailey SO-2 SE Missouri 08:42.7 26:54.5 119
126 Noah Deck JR-3 DePaul 08:42.8 26:54.6 120
127 Erik Johnson SR-4 Wis.-Green Bay 08:43.0 26:55.3 121
128 Desmond Meyer SR-4 Chicago State 08:43.6 26:57.4 122
129 Cole Streich FR-1 South Dakota 08:43.8 26:57.9 123
130 Nicholas Skinner SO-2 Kansas State 08:45.3 27:02.5 124
131 Connor Ehnle JR-3 Illinois State 08:45.8 27:04.1
132 Daniel Peterson JR-3 DePaul 08:46.1 27:05.0 125
133 Christopher Conrad FR-1 Missouri 08:46.4 27:06.0 126
134 Bret Unger SR-4 IPFW 08:46.6 27:06.6 127
135 Ben Williams FR-1 Toledo 08:46.7 27:06.8 128
136 Brady Harless FR-1 Xavier (Ohio) 08:47.5 27:09.3 129
137 Sam Williamson SO-2 IPFW 08:47.7 27:09.9 130
138 Eric Hoffman FR-1 IUPUI 08:47.8 27:10.2
139 Mateo Nunez FR-1 Loyola (Ill.) 08:47.9 27:10.6 131
140 Grant Kaiser SR-4 Western Illinois 08:47.9 27:10.6 132
141 David Ehlers FR-1 IUPUI 08:48.6 27:12.7
142 Robert Peck SO-2 IPFW 08:48.7 27:12.9 133
143 Kyle Larkin SR-4 Wichita State 08:48.9 27:13.6
144 Ben Zabricky JR-3 Valparaiso 08:49.6 27:15.8 134
145 Liam O'Connell FR-1 SIU Edwardsville 08:49.8 27:16.3 135
146 Sam Oxandale SR-4 Kansas State 08:49.8 27:16.5
147 Dylan Quisenberry SO-2 Missouri 08:49.9 27:16.8 136
148 Drew Dueck JR-3 Wis.-Milwaukee 08:50.0 27:17.1 137
149 Zachary Pettinga FR-1 Oakland 08:50.0 27:17.1 138
150 Kyle Schwieman FR-1 Oakland 08:50.6 27:19.0 139
151 Jax Talbot SR-4 Toledo 08:51.5 27:21.5 140
152 Nathan Izewski FR-1 Valparaiso 08:51.5 27:21.7 141
153 Gage Garcia SR-4 Wichita State 08:51.8 27:22.7
154 Kevin Menyes SO-2 Xavier (Ohio) 08:52.1 27:23.4 142
155 Joe Carter SO-2 Eastern Illinois 08:52.8 27:25.8 143
156 Dominic Paoletti FR-1 Valparaiso 08:53.5 27:27.7 144
157 Matthew O'Connor JR-3 SIU Edwardsville 08:54.5 27:30.8 145
158 Ben Ahlrichs JR-3 Northern Iowa 08:54.9 27:32.1 146
159 Lucas Lingle JR-3 Western Illinois 08:55.0 27:32.3 147
160 Chris Durr FR-1 SE Missouri 08:55.4 27:33.7 148
161 Aiden Gallagher SO-2 Toledo 08:55.6 27:34.4 149
162 Grayson Jenkins JR-3 Xavier (Ohio) 08:56.2 27:36.0 150
163 Ross Smetzer SO-2 Western Illinois 08:56.4 27:36.6 151
164 Chris Kaminski SR-4 Drake 08:56.9 27:38.2 152
165 Connor Wuori JR-3 Oakland 08:57.0 27:38.6
166 Samuel Moran FR-1 IPFW 08:57.5 27:40.3 153
167 Michael Sippy FR-1 Wis.-Milwaukee 08:57.7 27:40.8 154
168 Henry Harper SO-2 DePaul 08:58.6 27:43.4 155
169 Evan Britton FR-1 Xavier (Ohio) 08:58.7 27:43.9 156
170 Austin Dawn JR-3 Oakland 08:58.9 27:44.6
171 Emmanuel Champagne FR-1 Loyola (Ill.) 08:59.5 27:46.2
172 Jacob Simmons JR-3 South Dakota 08:59.9 27:47.7 157
173 Keegan Donahue SO-2 Kansas State 09:00.2 27:48.5
174 William Becker SR-4 Xavier (Ohio) 09:00.2 27:48.6 158
175 Jose Aguilera JR-3 Eastern Illinois 09:01.0 27:51.1 159
176 Tullus Dean FR-1 Xavier (Ohio) 09:01.4 27:52.2
177 Eric Scott FR-1 Missouri 09:03.4 27:58.4 160
178 Kurt Unger JR-3 IPFW 09:03.6 27:59.1 161
179 Tyler Beaman JR-3 SE Missouri 09:03.7 27:59.3 162
180 Joe Romain FR-1 Drake 09:05.3 28:04.4 163
181 Seth Iverson FR-1 South Dakota 09:07.1 28:09.7
182 Sirlaurence King SO-2 Illinois-Chicago 09:07.9 28:12.3 164
183 Jacob Wistinghausen JR-3 Toledo 09:08.7 28:14.6
184 Gabe O'Keefe SR-4 IPFW 09:12.3 28:25.7
185 Nathan Cook SO-2 SE Missouri 09:14.2 28:31.6 165
186 Clinton Caddell SR-4 Toledo 09:14.5 28:32.8
187 Peyton Twedt SO-2 Northern Iowa 09:14.8 28:33.6 166
188 Jack Korte FR-1 DePaul 09:15.0 28:34.1
189 Connor Shaffer JR-3 IPFW 09:15.4 28:35.6
190 Chris Joseph FR-1 Illinois-Chicago 09:15.8 28:36.8
191 Gus Kaiser FR-1 Wis.-Milwaukee 09:16.7 28:39.5
192 Conor Fagan FR-1 DePaul 09:17.1 28:40.6
193 James Kosbar JR-3 SE Missouri 09:17.5 28:42.0 167
194 Corey Moody FR-1 Western Illinois 09:17.9 28:43.3 168
195 William Llanos JR-3 Chicago State 09:18.0 28:43.5 169
196 Joey Black FR-1 Valparaiso 09:24.0 29:01.9 170
197 Justin Philips FR-1 Drake 09:25.1 29:05.3
198 Pierce Libbey JR-3 South Dakota 09:26.2 29:08.7
199 Tyler Grimes JR-3 Valparaiso 09:27.2 29:11.9 171
200 Nick Yaeger SO-2 SE Missouri 09:27.5 29:12.7 172
201 Andrew Huff SR-4 Chicago State 09:29.7 29:19.5 173
202 Samuel Engel JR-3 Wis.-Green Bay 09:35.7 29:38.1 174
203 Harry Osborne FR-1 Western Illinois 09:36.7 29:41.3 175
204 Joshua Langteau FR-1 Wis.-Green Bay 09:55.1 30:38.0 176
205 Jacob Fierst JR-3 Wis.-Green Bay 09:57.4 30:45.2 177
206 Adam Plough FR-1 Wis.-Green Bay 09:59.4 30:51.3 178
207 Quintin Thurman FR-1 Western Illinois 10:04.7 31:07.7 179
208 Cory Lumpkin FR-1 Chicago State 11:04.2 34:11.6 180
209 Justin Johnson FR-1 Chicago State 11:51.3 36:37.1 181

Women's Red Race Team Results (4.97 Mile)
Top↑

PL Team Total Time Avg. Time Score 1 2 3 4 5 6 7
1 South Dakota 1:47:44 21:32 105 5 20 23 27 30 40 55
2 Marquette 1:48:23 21:40 136 12 13 29 38 44 57 98
3 Bradley 1:48:42 21:44 152 19 22 31 37 43 66 73
4 Loyola (Ill.) 1:48:11 21:38 160 1 11 47 49 52 118 155
5 Northern Illinois 1:48:49 21:45 168 6 14 16 53 79 95 96
6 Northern Iowa 1:49:06 21:49 181 15 18 36 45 67 110 114
7 Xavier (Ohio) 1:49:10 21:50 186 9 17 34 56 70 131 152
8 Oakland 1:49:00 21:48 198 3 7 42 58 88 124 167
9 Iowa 1:48:55 21:47 204 2 24 35 46 97    
10 SE Missouri 1:50:50 22:10 297 25 39 62 71 100 126 128
11 Illinois State 1:51:20 22:16 324 32 60 74 77 81 83 113
12 Saint Louis 1:51:38 22:19 348 48 50 59 92 99 116 137
13 Kansas State 1:52:17 22:27 382 21 41 61 75 184 195 203
14 Nebraska 1:52:01 22:24 403 8 68 85 101 141 142 157
15 Wichita State 1:52:09 22:25 407 28 63 89 91 136 151 180
16 IUPUI 1:53:10 22:38 471 33 51 87 147 153 156 166
17 Missouri State 1:53:00 22:36 472 10 54 123 140 145 186 191
18 Eastern Illinois 1:53:21 22:40 499 26 106 107 125 135 163 169
19 Missouri 1:53:37 22:43 506 78 94 102 111 121 165 182
20 Toledo 1:53:45 22:45 523 65 84 90 134 150 154 159
21 Ball State 1:53:55 22:47 536 82 93 115 119 127 143 171
22 Drake 1:54:57 22:59 603 86 103 109 132 173 176 185
23 IPFW 1:54:54 22:58 612 4 129 138 162 179 201  
24 Wis.-Milwaukee 1:55:06 23:01 613 76 112 117 148 160 161 168
25 Illinois-Chicago 1:55:42 23:08 631 69 104 122 144 192 197  
26 SIU Edwardsville 1:56:32 23:18 681 72 108 130 181 190 202  
27 Nebraska-Omaha 1:56:27 23:17 682 64 105 158 172 183 189 194
28 DePaul 1:57:08 23:25 733 80 139 149 178 187 196 199
29 Western Illinois 2:02:53 24:34 828 120 133 177 188 210    
30 Valparaiso 2:00:54 24:10 871 146 170 174 175 206 207 208
31 Wis.-Green Bay 2:04:25 24:53 959 164 193 198 200 204 205 209

Women's Red Race Individual Results (4.97 Mile)
Top↑
START TIME: 3:59 PM

PL NAME YEAR TEAM Avg. Mile TIME SCORE
1 Lindsey Brewis JR-3 Loyola (Ill.) 06:40.3 20:36.4 1
2 Andrea Shine JR-3 Iowa 06:43.9 20:47.4 2
3 Maggie Schneider FR-1 Oakland 06:48.7 21:02.4 3
4 Emma Rafuse JR-3 IPFW 06:49.9 21:06.1 4
5 Megan Billington JR-3 South Dakota 06:51.7 21:11.7 5
6 Mackenzie Callahan FR-1 Northern Illinois 06:53.2 21:16.2 6
7 Rachel Levy JR-3 Oakland 06:53.6 21:17.5 7
8 Bonnie Smith SR-4 Nebraska 06:54.1 21:19.0 8
9 Madeline Britton SR-4 Xavier (Ohio) 06:54.4 21:19.8 9
10 Jessica Allen SR-4 Missouri State 06:54.9 21:21.5 10
11 Emma Hatch SR-4 Loyola (Ill.) 06:55.3 21:22.6 11
12 Jennifer Parker SR-4 Marquette 06:56.1 21:25.2 12
13 Mary Hanson JR-3 Marquette 06:56.6 21:26.6 13
14 Ashley Tutt FR-1 Northern Illinois 06:56.7 21:27.1 14
15 Brette Correy SR-4 Northern Iowa 06:57.4 21:29.1 15
16 Lorena Martin SR-4 Northern Illinois 06:57.6 21:29.7 16
17 Allison Sinning SR-4 Xavier (Ohio) 06:57.8 21:30.4 17
18 Hannah Truniger SO-2 Northern Iowa 06:57.9 21:30.6 18
19 McKenzie Altmayer SO-2 Bradley 06:58.5 21:32.7 19
20 Laura Nelson FR-1 South Dakota 06:58.9 21:33.8 20
21 Kayla Doll SR-4 Kansas State 06:59.2 21:34.7 21
22 Sara Piller JR-3 Bradley 06:59.4 21:35.5 22
23 Lindsay Joyce JR-3 South Dakota 06:59.7 21:36.3 23
24 Madison Waymire JR-3 Iowa 06:59.9 21:36.9 24
25 Kaitlyn Shea JR-3 SE Missouri 07:00.1 21:37.6 25
26 Maria Baldwin SR-4 Eastern Illinois 07:00.3 21:38.1 26
27 Madeline Huglen JR-3 South Dakota 07:01.1 21:40.8 27
28 Winny Koskei FR-1 Wichita State 07:01.3 21:41.2 28
29 Jessica Parker JR-3 Marquette 07:01.4 21:41.6 29
30 Erin Wetzstein SR-4 South Dakota 07:01.7 21:42.5 30
31 Natalie Burant SR-4 Bradley 07:03.1 21:46.8 31
32 Grace Beattie SO-2 Illinois State 07:03.3 21:47.3 32
33 Katelyn Murphy SO-2 IUPUI 07:03.4 21:47.6 33
34 Jenna Clayworth FR-1 Xavier (Ohio) 07:03.6 21:48.4 34
35 Marta Bote Gonzalez SR-4 Iowa 07:03.9 21:49.3 35
36 Mckayla Cole FR-1 Northern Iowa 07:04.6 21:51.3 36
37 Kirstin Oakley SO-2 Bradley 07:04.8 21:51.9 37
38 Courtney Dugan SO-2 Marquette 07:04.9 21:52.3 38
39 Angie Sumner SR-4 SE Missouri 07:04.9 21:52.5 39
40 Bethany Kozak JR-3 South Dakota 07:05.0 21:52.5 40
41 Emma Wren JR-3 Kansas State 07:05.5 21:54.2 41
42 Ashley Burr SR-4 Oakland 07:06.1 21:56.1 42
43 Brooke Nusser JR-3 Bradley 07:06.2 21:56.4 43
44 Lauren Fuqua SR-4 Marquette 07:06.7 21:57.8 44
45 Ashley Norem SR-4 Northern Iowa 07:06.8 21:58.2 45
46 Juliann Hollensbe SO-2 Iowa 07:07.5 22:00.4 46
47 Mimi Reimers FR-1 Loyola (Ill.) 07:07.8 22:01.4 47
48 Katie Anderson JR-3 Saint Louis 07:08.0 22:01.9 48
49 Cassie Bloch SR-4 Loyola (Ill.) 07:08.5 22:03.5 49
50 Courtney Link JR-3 Saint Louis 07:09.0 22:04.9 50
51 Kelsey Tyler SR-4 IUPUI 07:09.7 22:07.3 51
52 Rita Maurais SO-2 Loyola (Ill.) 07:09.8 22:07.4 52
53 Ericka Hibser JR-3 Northern Illinois 07:10.5 22:09.7 53
54 Grace Breiten FR-1 Missouri State 07:10.7 22:10.3 54
55 Kianna Stewart SO-2 South Dakota 07:11.0 22:11.2 55
56 Anna Kostarellis FR-1 Xavier (Ohio) 07:11.3 22:12.1 56
57 Meghan Carroll SR-4 Marquette 07:11.7 22:13.5 57
58 Alana Koepf SR-4 Oakland 07:11.8 22:13.7 58
59 Anna Schmitz JR-3 Saint Louis 07:12.0 22:14.3 59
60 Dakota Roman SO-2 Illinois State 07:12.1 22:14.6 60
61 Cara Melgares FR-1 Kansas State 07:12.3 22:15.3 61
62 Carli Knott FR-1 SE Missouri 07:12.4 22:15.5 62
63 Jordan Maestas SR-4 Wichita State 07:12.4 22:15.6 63
64 Willa Koenig SO-2 Nebraska-Omaha 07:12.6 22:16.3 64
65 Stephanie Sherman SO-2 Toledo 07:12.8 22:16.7 65
66 Hannah Witczak SR-4 Bradley 07:12.8 22:16.8 66
67 Tiffany Christensen JR-3 Northern Iowa 07:12.9 22:17.0 67
68 Erika Freyhof FR-1 Nebraska 07:13.0 22:17.4 68
69 Allison Hansen JR-3 Illinois-Chicago 07:13.7 22:19.5 69
70 Jennie Prial FR-1 Xavier (Ohio) 07:14.0 22:20.4 70
71 Rachel Hutchcraft JR-3 SE Missouri 07:14.3 22:21.5 71
72 Haley Miller SR-4 SIU Edwardsville 07:14.6 22:22.3 72
73 Abby Jockisch SO-2 Bradley 07:14.9 22:23.3 73
74 Ashley England SR-4 Illinois State 07:15.5 22:25.0 74
75 Sydney Collins SO-2 Kansas State 07:15.6 22:25.4 75
76 Mikayla Fox SO-2 Wis.-Milwaukee 07:15.6 22:25.5 76
77 Audrey Janik FR-1 Illinois State 07:15.7 22:25.8 77
78 Sophia Racette SO-2 Missouri 07:15.9 22:26.3 78
79 Vivian Overbeck SO-2 Northern Illinois 07:15.9 22:26.5 79
80 Miranda Rea JR-3 DePaul 07:16.2 22:27.2 80
81 Erica Brown SR-4 Illinois State 07:16.4 22:28.0 81
82 Mackenzie Griffin SR-4 Bradley 07:16.5 22:28.1
83 Maritza Rodriguez SO-2 Ball State 07:16.5 22:28.3 82
84 Lindsey Lewis SR-4 Illinois State 07:16.6 22:28.5 83
85 Nina Bendixen JR-3 Toledo 07:16.8 22:29.0 84
86 Katrina Santiago SR-4 Nebraska 07:16.8 22:29.1 85
87 Bailee Cofer SR-4 Drake 07:17.0 22:29.6 86
88 Shelby Pake SO-2 IUPUI 07:17.0 22:29.8 87
89 Sammy Mondry SR-4 Oakland 07:17.3 22:30.6 88
90 Tangy Wiseman JR-3 Wichita State 07:17.5 22:31.3 89
91 Amanda Bakley FR-1 Toledo 07:17.7 22:31.9 90
92 Yazmine Wright FR-1 Wichita State 07:18.2 22:33.4 91
93 Natalie Davis JR-3 Saint Louis 07:18.4 22:34.1 92
94 Hannah Cummings SO-2 Ball State 07:18.4 22:34.1 93
95 Hannah Thomas JR-3 Missouri 07:18.6 22:34.7 94
96 Julia Noah SO-2 South Dakota 07:19.3 22:36.8
97 Sara Atkins FR-1 Northern Illinois 07:19.7 22:38.1 95
98 Noelle Maire FR-1 Northern Illinois 07:20.0 22:39.0 96
99 Lauren Opatrny JR-3 Iowa 07:20.9 22:41.7 97
100 Nora Keller JR-3 Marquette 07:21.2 22:42.6 98
101 Courtney Pfanstiel JR-3 Saint Louis 07:21.4 22:43.2 99
102 Danielle Mohrmann SO-2 SE Missouri 07:21.4 22:43.2 100
103 Elsa Forsberg SO-2 Nebraska 07:21.5 22:43.5 101
104 Melissa Menghini SO-2 Missouri 07:21.5 22:43.8 102
105 Morgan Garcia SO-2 Drake 07:22.1 22:45.5 103
106 Ai Kaisho SO-2 Illinois-Chicago 07:22.2 22:45.8 104
107 Emily Johnson FR-1 Nebraska-Omaha 07:22.4 22:46.4 105
108 Grace Rowan JR-3 Eastern Illinois 07:22.5 22:46.7 106
109 Alexandria Gutt JR-3 Eastern Illinois 07:22.9 22:47.9 107
110 Allie Sweatt SR-4 SIU Edwardsville 07:23.0 22:48.2 108
111 Jonna Bart FR-1 South Dakota 07:23.3 22:49.3
112 Rachel Selva FR-1 Drake 07:24.2 22:51.9 109
113 Gabby Skopec FR-1 Northern Iowa 07:24.4 22:52.6 110
114 Kaelyn Balch SR-4 Missouri 07:24.8 22:53.8 111
115 Meg Swietlik FR-1 Wis.-Milwaukee 07:24.8 22:53.8 112
116 Sydney Billingsley SR-4 Illinois State 07:25.0 22:54.4 113
117 Lyndsie Schinkel JR-3 Northern Iowa 07:25.0 22:54.5 114
118 Stephanie McElhaney SO-2 Ball State 07:25.0 22:54.6 115
119 Amy Kieliszewski JR-3 Saint Louis 07:25.1 22:54.6 116
120 Nicole Hohn JR-3 Wis.-Milwaukee 07:25.2 22:54.9 117
121 Sam Lechowicz SO-2 Bradley 07:25.3 22:55.5
122 Julia Demko JR-3 Loyola (Ill.) 07:25.5 22:56.1 118
123 Brooke Talhelm SO-2 Ball State 07:25.7 22:56.5 119
124 Abigail Richter SO-2 Western Illinois 07:26.1 22:57.7 120
125 Kayla Funkenbusch FR-1 Missouri 07:26.4 22:58.8 121
126 Michelle Borycki SR-4 Illinois-Chicago 07:26.4 22:58.8 122
127 Erica Wollmering SO-2 Missouri State 07:26.5 22:58.9 123
128 Heather Czarnecki FR-1 Oakland 07:26.5 22:59.2 124
129 Kate Bushue FR-1 Eastern Illinois 07:27.1 23:00.8 125
130 Natalie Kopplin JR-3 SE Missouri 07:27.5 23:02.3 126
131 Cayla Eckenroth FR-1 Ball State 07:27.5 23:02.3 127
132 Andrea George SR-4 SE Missouri 07:27.6 23:02.4 128
133 Rebecca Sippel JR-3 IPFW 07:27.6 23:02.6 129
134 Jess Clarke SR-4 SIU Edwardsville 07:27.9 23:03.4 130
135 Amanda Cusimano FR-1 Xavier (Ohio) 07:27.9 23:03.4 131
136 Elizabeth Aho FR-1 Drake 07:28.2 23:04.4 132
137 Nicole Beebe SO-2 Western Illinois 07:28.3 23:04.5 133
138 Riley Kwiatkowski FR-1 Toledo 07:28.8 23:06.1 134
139 Kennidi Knoblock JR-3 Illinois State 07:29.4 23:08.1
140 Avani Flanagan FR-1 Eastern Illinois 07:29.4 23:08.1 135
141 McKenna Paintin SO-2 Wichita State 07:29.5 23:08.2 136
142 Madeline Nathe SR-4 Saint Louis 07:29.7 23:08.8 137
143 Sophia Hirzel FR-1 IPFW 07:30.3 23:10.8 138
144 Courtney Pickering SO-2 DePaul 07:30.5 23:11.6 139
145 Jordyn Capra SO-2 Missouri State 07:30.6 23:11.7 140
146 Maura Beattie SR-4 Northern Illinois 07:30.6 23:11.8
147 Kelsey Leedy SR-4 Northern Iowa 07:30.8 23:12.4
148 Eilish Overby SR-4 SE Missouri 07:30.9 23:12.7
149 Anna Peer SR-4 Nebraska 07:31.0 23:13.0 141
150 Judi Jones SO-2 Nebraska 07:31.1 23:13.4 142
151 Jessica Bryzek SR-4 Ball State 07:31.5 23:14.4 143
152 Ellie Adams SR-4 Saint Louis 07:31.9 23:15.7
153 Melissa Ricci FR-1 Northern Illinois 07:32.6 23:17.8
154 Natalie Jaramillo SO-2 Illinois-Chicago 07:32.6 23:18.0 144
155 Danielle Bohannon SO-2 Missouri State 07:32.7 23:18.3 145
156 Kim Heiny SR-4 Valparaiso 07:33.0 23:19.2 146
157 Janine Orvis FR-1 IUPUI 07:33.1 23:19.4 147
158 Hailey Migliano FR-1 Wis.-Milwaukee 07:33.4 23:20.4 148
159 Jessica Harris JR-3 DePaul 07:33.5 23:20.6 149
160 Annie Moore SO-2 Illinois State 07:33.7 23:21.5
161 Hannah Sponaugle FR-1 Toledo 07:33.9 23:21.9 150
162 Suzie Wright SO-2 Wichita State 07:34.8 23:24.8 151
163 Brooke Hines SR-4 Xavier (Ohio) 07:35.1 23:25.8 152
164 Ashley Kidwell JR-3 IUPUI 07:35.5 23:26.8 153
165 Maddie Ferner SO-2 Toledo 07:35.6 23:27.0 154
166 Audrey Michaelson SR-4 Loyola (Ill.) 07:35.8 23:27.7 155
167 Caitlin McGauley SO-2 Marquette 07:35.8 23:27.8
168 Haley Welch SR-4 IUPUI 07:35.9 23:28.1 156
169 Anna Thomas JR-3 SE Missouri 07:35.9 23:28.2
170 Rachel Brush SO-2 Nebraska 07:36.9 23:31.1 157
171 Kayla Sabotin SR-4 Nebraska-Omaha 07:37.1 23:31.9 158
172 Morgan Dembowski FR-1 Toledo 07:37.2 23:32.1 159
173 Ciara Kaderly FR-1 Wis.-Milwaukee 07:37.4 23:32.7 160
174 Julia Mendiola SR-4 Toledo 07:37.7 23:33.6
175 Lauren Peters JR-3 Wis.-Milwaukee 07:38.1 23:35.0 161
176 Hannah Aschliman JR-3 IPFW 07:38.3 23:35.5 162
177 Caroline Collet SR-4 Eastern Illinois 07:38.5 23:36.1 163
178 Kimberly Hurst SR-4 Wis.-Green Bay 07:38.6 23:36.3 164
179 Lexi Maddox FR-1 Missouri 07:38.7 23:36.9 165
180 Jessica Backherms SO-2 IUPUI 07:39.1 23:38.1 166
181 Kendra Colesa SR-4 Oakland 07:39.7 23:39.7 167
182 Jessica Laabs SR-4 Wis.-Milwaukee 07:40.0 23:40.8 168
183 Maggie McPherson FR-1 Eastern Illinois 07:40.6 23:42.7 169
184 Kate Mitchell SO-2 Valparaiso 07:40.9 23:43.7 170
185 Jordan Timmons SR-4 Ball State 07:41.2 23:44.4 171
186 Karo Garcia SR-4 Nebraska-Omaha 07:41.5 23:45.4 172
187 Olivia Rogers SO-2 Drake 07:41.7 23:46.0 173
188 Katherine Germann SO-2 Valparaiso 07:41.9 23:46.5 174
189 Emmalyne Tarsa FR-1 Ball State 07:42.4 23:48.3
190 Shannon Dugan JR-3 Wis.-Milwaukee 07:42.7 23:49.0
191 Meliza Rodriguez SO-2 Ball State 07:43.3 23:50.9
192 Maddi Leigh FR-1 Oakland 07:43.3 23:51.1
193 Sarah Caesar FR-1 Valparaiso 07:43.4 23:51.4 175
194 Meghan Kearney JR-3 Drake 07:43.8 23:52.4 176
195 Jacey Roper FR-1 Western Illinois 07:44.8 23:55.6 177
196 Lizzie DeJoie FR-1 DePaul 07:45.3 23:57.2 178
197 Danielle Frank SO-2 IPFW 07:46.0 23:59.2 179
198 Celia Biel FR-1 Wichita State 07:46.0 23:59.3 180
199 Abigail Jones FR-1 Loyola (Ill.) 07:46.0 23:59.4
200 Aly Goff SO-2 SIU Edwardsville 07:46.5 24:01.0 181
201 Kayla Glowacki FR-1 Missouri 07:48.1 24:05.8 182
202 Alyssa Averhoff SR-4 Nebraska-Omaha 07:48.6 24:07.3 183
203 Erin Lee FR-1 Kansas State 07:48.8 24:07.9 184
204 Millie Bretl FR-1 Drake 07:48.9 24:08.2 185
205 Renae Buschling JR-3 Missouri State 07:49.0 24:08.6 186
206 Rita Schnacker FR-1 Wichita State 07:49.9 24:11.4
207 Jessica Sanborn SR-4 DePaul 07:50.2 24:12.2 187
208 Megan Safranski FR-1 Wis.-Milwaukee 07:50.3 24:12.5
209 Hailey Tranchitella FR-1 Western Illinois 07:50.4 24:12.8 188
210 Anita Jenkins SO-2 Nebraska-Omaha 07:50.9 24:14.3 189
211 Keri Burmester SO-2 SIU Edwardsville 07:52.0 24:17.8 190
212 Madeline Saville JR-3 Missouri State 07:52.6 24:19.8 191
213 Mahal Schroeder FR-1 Illinois-Chicago 07:52.9 24:20.6 192
214 Erin Schmitt SR-4 Wis.-Green Bay 07:53.5 24:22.4 193
215 Annie Catania JR-3 Nebraska-Omaha 07:54.0 24:23.9 194
216 Kassidy Johnson FR-1 Kansas State 07:57.5 24:34.8 195
217 Marina Konow JR-3 IUPUI 07:58.1 24:36.6
218 Deidra Walker JR-3 Wichita State 07:58.2 24:37.0
219 Kiley Deain SO-2 Missouri 07:59.2 24:40.1
220 Valeska Halamicek SR-4 Missouri 07:59.4 24:40.6
221 Margaret Hastings FR-1 DePaul 08:01.6 24:47.5 196
222 Abby Fioresi FR-1 Xavier (Ohio) 08:02.2 24:49.3
223 Erin Falsey JR-3 Loyola (Ill.) 08:02.4 24:50.1
224 Lauren Houston JR-3 Nebraska-Omaha 08:02.7 24:51.0
225 Maddie LaRock JR-3 Illinois-Chicago 08:03.8 24:54.4 197
226 Meta Ehlen SO-2 Wis.-Green Bay 08:06.5 25:02.6 198
227 Paityn Howat SO-2 Missouri State 08:06.9 25:03.8
228 Kate Jacobs FR-1 DePaul 08:09.1 25:10.8 199
229 Abby Fisher SO-2 Eastern Illinois 08:11.4 25:17.9
230 Mercedes Robinson JR-3 Missouri State 08:12.3 25:20.5
231 Lea Viano SR-4 Eastern Illinois 08:13.1 25:23.0
232 Grecia Guzman FR-1 Wis.-Green Bay 08:14.3 25:26.7 200
233 Caitlyn Kiekhaefer JR-3 IPFW 08:16.2 25:32.5 201
234 Tyisha Bennett FR-1 Chicago State 08:16.8 25:34.4
235 Kassidy Dexheimer FR-1 SIU Edwardsville 08:18.6 25:40.1 202
236 Victoria Robinson FR-1 Kansas State 08:23.5 25:55.2 203
237 Caroline Kurdej JR-3 DePaul 08:24.4 25:58.0
238 Miranda Dreckschmidt JR-3 Wis.-Green Bay 08:24.4 25:58.0 204
239 Heather Plough SR-4 Wis.-Green Bay 08:27.3 26:06.9 205
240 Celia McGhiey SO-2 Valparaiso 08:29.7 26:14.3 206
241 Kathleen Neal FR-1 Valparaiso 08:35.2 26:31.4 207
242 Nicole Berneche SO-2 Valparaiso 08:38.8 26:42.5 208
243 Olivia Recker FR-1 Valparaiso 08:48.0 27:10.9
244 Tayler Justison SO-2 Valparaiso 08:57.8 27:41.1
245 Kimberlee Dallmann FR-1 Wis.-Green Bay 09:00.5 27:49.5 209
246 Kristen Goben SR-4 Western Illinois 09:17.9 28:43.3 210
247 Daeja Hooks SR-4 Chicago State 10:24.7 32:09.4